Time;durP1;ratioP1;P1;durP2;ratioP2;P2;SDS_P1;SDS_P2;PMS_P1;PMS_P2;Temp;Humidity;BMP_temperature;BMP_pressure;BME280_temperature;BME280_humidity;BME280_pressure;Samples;Min_cycle;Max_cycle;Signal;HPM_P1;HPM_P2
2022/02/06 00:00:49;;;;;;;42.83;28.02;;;;;;;;;;5077352;28;20052;-85
2022/02/06 00:03:16;;;;;;;51.40;32.30;;;;;;;;;;5080417;28;20046;-84
2022/02/06 00:05:47;;;;;;;45.70;28.50;;;;;;;;;;5078677;28;20438;-84
2022/02/06 00:08:13;;;;;;;48.42;29.13;;;;;;;;;;5076383;28;20112;-84
2022/02/06 00:10:40;;;;;;;42.00;26.05;;;;;;;;;;5078001;28;20028;-83
2022/02/06 00:13:06;;;;;;;49.25;29.45;;;;;;;;;;5074419;28;20049;-84
2022/02/06 00:15:32;;;;;;;49.80;28.65;;;;;;;;;;5074631;28;20056;-85
2022/02/06 00:17:59;;;;;;;46.50;29.33;;;;;;;;;;5075160;28;20016;-85
2022/02/06 00:20:31;;;;;;;56.55;29.95;;;;;;;;;;5073858;28;20046;-85
2022/02/06 00:23:01;;;;;;;57.47;31.25;;;;;;;;;;5073609;28;20454;-85
2022/02/06 00:25:44;;;;;;;53.97;32.10;;;;;;;;;;5074897;28;20033;-85
2022/02/06 00:33:23;;;;;;;49.58;29.60;;;;;;;;;;5074601;28;20031;-85
2022/02/06 00:38:02;;;;;;;48.58;29.30;;;;;;;;;;5073264;28;20037;-85
2022/02/06 00:41:22;;;;;;;50.03;31.63;;;;;;;;;;5074869;28;20507;-85
2022/02/06 00:43:49;;;;;;;53.90;32.53;;;;;;;;;;5074045;28;20024;-84
2022/02/06 00:46:17;;;;;;;423.38;380.40;;;;;;;;;;5074247;28;20020;-85
2022/02/06 00:48:49;;;;;;;136.55;122.82;;;;;;;;;;5074272;28;20115;-84
2022/02/06 00:53:45;;;;;;;58.45;43.30;;;;;;;;;;5074115;28;20034;-84
2022/02/06 00:56:11;;;;;;;224.65;202.38;;;;;;;;;;5073729;28;20037;-85
2022/02/06 00:58:37;;;;;;;39.00;20.95;;;;;;;;;;5074222;28;20020;-85
2022/02/06 01:01:04;;;;;;;52.20;41.20;;;;;;;;;;5074256;28;20052;-85
2022/02/06 01:03:30;;;;;;;32.55;17.48;;;;;;;;;;5072672;28;20074;-85
2022/02/06 01:05:57;;;;;;;60.97;44.00;;;;;;;;;;5072967;28;20059;-85
2022/02/06 01:08:23;;;;;;;56.13;33.92;;;;;;;;;;5072859;28;20107;-85
2022/02/06 01:10:49;;;;;;;38.80;18.52;;;;;;;;;;5072249;28;20373;-86
2022/02/06 01:13:25;;;;;;;32.80;19.08;;;;;;;;;;5073930;28;20020;-85
2022/02/06 01:15:57;;;;;;;37.10;17.60;;;;;;;;;;5072668;28;20124;-85
2022/02/06 01:18:31;;;;;;;34.40;18.60;;;;;;;;;;5072562;28;20024;-85
2022/02/06 01:21:02;;;;;;;29.95;16.48;;;;;;;;;;5074063;28;20729;-86
2022/02/06 01:23:45;;;;;;;32.40;15.88;;;;;;;;;;5072987;28;20362;-84
2022/02/06 01:26:24;;;;;;;31.33;17.65;;;;;;;;;;5073745;28;20016;-86
2022/02/06 01:29:02;;;;;;;26.27;15.88;;;;;;;;;;5072791;28;20028;-86
2022/02/06 01:31:44;;;;;;;32.75;17.38;;;;;;;;;;5073875;28;20186;-85
2022/02/06 01:34:14;;;;;;;32.03;17.80;;;;;;;;;;5072564;28;20032;-85
2022/02/06 01:36:47;;;;;;;30.92;17.10;;;;;;;;;;5072417;28;20032;-84
2022/02/06 01:41:59;;;;;;;41.45;22.48;;;;;;;;;;5073727;28;20078;-85
2022/02/06 01:44:47;;;;;;;35.38;19.92;;;;;;;;;;5073687;28;20012;-85
2022/02/06 02:01:14;;;;;;;38.88;18.10;;;;;;;;;;5036396;28;20063;-85
2022/02/06 02:03:50;;;;;;;31.77;18.70;;;;;;;;;;5072615;28;20028;-85
2022/02/06 02:09:25;;;;;;;34.33;18.15;;;;;;;;;;5073759;28;20055;-85
2022/02/06 02:12:05;;;;;;;32.20;17.33;;;;;;;;;;5073445;28;20028;-85
2022/02/06 02:14:56;;;;;;;36.45;17.98;;;;;;;;;;5072789;28;20071;-85
2022/02/06 02:20:46;;;;;;;38.65;21.77;;;;;;;;;;5073424;28;20040;-85
2022/02/06 02:25:50;;;;;;;33.45;20.77;;;;;;;;;;5077159;28;20107;-86
2022/02/06 02:47:21;;;;;;;40.35;21.40;;;;;;;;;;5076751;28;20024;-86
2022/02/06 02:49:52;;;;;;;34.72;18.55;;;;;;;;;;5075482;28;20029;-84
2022/02/06 02:55:35;;;;;;;31.58;17.73;;;;;;;;;;5076416;28;20089;-85
2022/02/06 03:00:35;;;;;;;37.42;20.85;;;;;;;;;;5077484;28;20033;-85
2022/02/06 03:03:13;;;;;;;33.28;17.27;;;;;;;;;;5076824;28;20021;-86
2022/02/06 03:05:43;;;;;;;45.72;23.67;;;;;;;;;;5075850;28;20036;-86
2022/02/06 03:08:11;;;;;;;41.83;17.63;;;;;;;;;;5075652;28;20020;-86
2022/02/06 03:10:38;;;;;;;30.10;18.02;;;;;;;;;;5076303;28;20031;-85
2022/02/06 03:13:08;;;;;;;34.45;19.02;;;;;;;;;;5075333;28;20477;-85
2022/02/06 03:15:44;;;;;;;37.83;18.83;;;;;;;;;;5075023;28;20135;-85
2022/02/06 03:18:18;;;;;;;30.45;16.15;;;;;;;;;;5075102;28;20024;-85
2022/02/06 03:20:44;;;;;;;30.15;17.05;;;;;;;;;;5075437;28;20435;-85
2022/02/06 03:23:11;;;;;;;25.17;13.75;;;;;;;;;;5076530;28;20400;-85
2022/02/06 03:25:47;;;;;;;29.60;15.23;;;;;;;;;;5076363;28;20055;-86
2022/02/06 03:28:13;;;;;;;33.35;16.40;;;;;;;;;;5076450;28;20044;-86
2022/02/06 03:30:40;;;;;;;31.80;16.48;;;;;;;;;;5076400;28;20093;-85
2022/02/06 03:33:06;;;;;;;34.10;18.27;;;;;;;;;;5076291;28;20480;-86
2022/02/06 03:35:32;;;;;;;31.30;15.73;;;;;;;;;;5074972;28;20114;-86
2022/02/06 03:37:59;;;;;;;24.98;15.75;;;;;;;;;;5075855;28;20524;-86
2022/02/06 03:40:28;;;;;;;27.90;15.60;;;;;;;;;;5074741;28;20024;-86
2022/02/06 03:45:35;;;;;;;30.08;16.63;;;;;;;;;;5075379;28;20111;-86
2022/02/06 03:48:14;;;;;;;29.25;15.93;;;;;;;;;;5075654;28;20024;-86
2022/02/06 03:50:46;;;;;;;24.08;12.50;;;;;;;;;;5074411;28;20027;-86
2022/02/06 03:53:14;;;;;;;24.45;12.90;;;;;;;;;;5074016;28;20017;-85
2022/02/06 03:55:40;;;;;;;19.88;12.63;;;;;;;;;;5074125;28;20039;-86
2022/02/06 03:58:06;;;;;;;23.92;13.85;;;;;;;;;;5074239;28;20491;-86
2022/02/06 04:00:33;;;;;;;24.52;13.95;;;;;;;;;;5075002;28;20107;-86
2022/02/06 04:02:59;;;;;;;25.83;14.95;;;;;;;;;;5075355;28;20468;-85
2022/02/06 04:05:25;;;;;;;23.42;13.38;;;;;;;;;;5075642;28;20033;-86
2022/02/06 04:07:52;;;;;;;24.08;13.40;;;;;;;;;;5073788;28;20108;-86
2022/02/06 04:10:19;;;;;;;26.25;14.15;;;;;;;;;;5075274;28;20021;-86
2022/02/06 04:12:47;;;;;;;22.88;13.48;;;;;;;;;;5073907;28;20075;-86
2022/02/06 04:15:22;;;;;;;25.23;15.15;;;;;;;;;;5073938;28;20516;-86
2022/02/06 04:17:56;;;;;;;36.25;20.13;;;;;;;;;;5075676;28;20476;-86
2022/02/06 04:20:22;;;;;;;43.90;20.80;;;;;;;;;;5073798;28;20036;-85
2022/02/06 04:22:48;;;;;;;37.90;18.38;;;;;;;;;;5073705;28;20528;-85
2022/02/06 04:25:15;;;;;;;31.70;18.02;;;;;;;;;;5074783;28;20044;-85
2022/02/06 04:27:41;;;;;;;40.30;19.85;;;;;;;;;;5074740;28;20024;-86
2022/02/06 04:30:07;;;;;;;39.33;17.05;;;;;;;;;;5074966;28;20021;-86
2022/02/06 04:32:35;;;;;;;29.90;15.88;;;;;;;;;;5074645;28;20028;-86
2022/02/06 04:35:01;;;;;;;25.92;14.13;;;;;;;;;;5074326;28;20029;-86
2022/02/06 04:37:35;;;;;;;26.83;12.90;;;;;;;;;;5075061;28;20365;-86
2022/02/06 04:40:11;;;;;;;25.65;12.90;;;;;;;;;;5073629;28;20033;-86
2022/02/06 04:48:15;;;;;;;26.77;16.02;;;;;;;;;;5074828;28;20093;-85
2022/02/06 05:17:57;;;;;;;25.25;15.20;;;;;;;;;;5073706;28;20024;-84
2022/02/06 05:23:20;;;;;;;31.17;17.58;;;;;;;;;;5074217;28;20025;-84
2022/02/06 05:29:03;;;;;;;36.22;18.55;;;;;;;;;;5032424;28;20037;-84
2022/02/06 05:31:42;;;;;;;31.05;17.83;;;;;;;;;;5031844;28;20028;-84
2022/02/06 05:34:08;;;;;;;35.75;18.25;;;;;;;;;;5059236;28;20119;-83
2022/02/06 05:36:35;;;;;;;33.00;18.65;;;;;;;;;;5080566;28;20062;-83
2022/02/06 05:39:01;;;;;;;33.88;18.73;;;;;;;;;;5081408;28;20603;-83
2022/02/06 05:41:27;;;;;;;38.90;20.38;;;;;;;;;;5077557;28;20029;-84
2022/02/06 05:43:53;;;;;;;39.30;18.88;;;;;;;;;;5083818;28;20024;-83
2022/02/06 05:46:20;;;;;;;46.75;23.63;;;;;;;;;;5074703;28;20028;-84
2022/02/06 05:48:46;;;;;;;43.25;22.73;;;;;;;;;;5073822;28;20036;-83
2022/02/06 05:51:14;;;;;;;54.63;27.55;;;;;;;;;;5072526;28;20103;-83
2022/02/06 05:53:40;;;;;;;43.20;23.05;;;;;;;;;;5073236;28;20429;-83
2022/02/06 05:56:06;;;;;;;46.10;24.38;;;;;;;;;;5072118;28;20063;-83
2022/02/06 05:58:33;;;;;;;41.00;22.25;;;;;;;;;;5076430;28;20023;-83
2022/02/06 06:00:59;;;;;;;39.33;22.13;;;;;;;;;;5076689;28;20503;-84
2022/02/06 06:03:25;;;;;;;42.78;22.42;;;;;;;;;;5077608;28;20431;-84
2022/02/06 06:05:52;;;;;;;55.83;29.65;;;;;;;;;;5077064;28;20029;-84
2022/02/06 06:08:18;;;;;;;62.75;33.13;;;;;;;;;;5077778;28;20027;-84
2022/02/06 06:10:44;;;;;;;61.95;33.53;;;;;;;;;;5077181;28;20056;-82
2022/02/06 06:13:11;;;;;;;63.45;31.17;;;;;;;;;;5075807;28;20468;-83
2022/02/06 06:15:37;;;;;;;48.22;25.00;;;;;;;;;;5076889;28;20155;-83
2022/02/06 06:18:05;;;;;;;48.55;25.90;;;;;;;;;;5075931;28;20565;-83
2022/02/06 06:20:36;;;;;;;50.40;25.58;;;;;;;;;;5076680;28;20032;-84
2022/02/06 06:23:03;;;;;;;61.40;29.27;;;;;;;;;;5076024;28;20056;-84
2022/02/06 06:25:36;;;;;;;34.92;21.58;;;;;;;;;;5077525;28;20080;-84
2022/02/06 06:28:02;;;;;;;35.72;20.15;;;;;;;;;;5076677;28;20025;-84
2022/02/06 06:30:28;;;;;;;32.38;18.35;;;;;;;;;;5076982;28;20048;-84
2022/02/06 06:32:54;;;;;;;32.33;18.35;;;;;;;;;;5076716;28;20028;-83
2022/02/06 06:35:21;;;;;;;35.63;18.90;;;;;;;;;;5075281;28;20032;-85
2022/02/06 06:37:49;;;;;;;42.30;26.63;;;;;;;;;;5077078;28;20044;-84
2022/02/06 06:40:15;;;;;;;36.25;20.25;;;;;;;;;;5076814;28;20055;-85
2022/02/06 06:42:42;;;;;;;30.75;18.02;;;;;;;;;;5076240;28;20032;-84
2022/02/06 06:45:09;;;;;;;33.33;18.15;;;;;;;;;;5075293;28;20572;-84
2022/02/06 06:47:35;;;;;;;32.10;17.88;;;;;;;;;;5075325;28;20052;-84
2022/02/06 06:50:03;;;;;;;71.90;33.08;;;;;;;;;;5075979;28;20028;-83
2022/02/06 06:52:29;;;;;;;67.63;33.90;;;;;;;;;;5075063;28;20020;-84
2022/02/06 06:55:03;;;;;;;52.90;25.23;;;;;;;;;;5074561;28;20031;-84
2022/02/06 06:57:37;;;;;;;77.22;37.83;;;;;;;;;;5074903;28;20024;-83
2022/02/06 07:02:34;;;;;;;41.60;23.55;;;;;;;;;;5076435;28;20087;-84
2022/02/06 07:05:03;;;;;;;51.78;28.10;;;;;;;;;;5076361;28;20025;-85
2022/02/06 07:07:30;;;;;;;54.22;28.75;;;;;;;;;;5075111;28;20032;-84
2022/02/06 07:09:57;;;;;;;34.20;20.25;;;;;;;;;;5075652;28;20465;-84
2022/02/06 07:12:23;;;;;;;43.75;21.92;;;;;;;;;;5076097;28;20143;-85
2022/02/06 07:14:50;;;;;;;35.70;20.38;;;;;;;;;;5075854;28;20054;-84
2022/02/06 07:17:17;;;;;;;40.05;22.67;;;;;;;;;;5075608;28;20017;-85
2022/02/06 07:19:44;;;;;;;38.00;21.80;;;;;;;;;;5074853;28;20111;-83
2022/02/06 07:22:13;;;;;;;35.03;21.17;;;;;;;;;;5074768;28;20047;-84
2022/02/06 07:24:40;;;;;;;40.92;25.58;;;;;;;;;;5074564;28;20070;-85
2022/02/06 07:27:19;;;;;;;41.53;23.83;;;;;;;;;;5074846;28;20051;-85
2022/02/06 07:29:45;;;;;;;46.17;26.65;;;;;;;;;;5076230;28;20027;-84
2022/02/06 07:32:11;;;;;;;34.58;20.90;;;;;;;;;;5075518;28;20028;-85
2022/02/06 07:34:38;;;;;;;33.60;17.27;;;;;;;;;;5075665;28;20503;-85
2022/02/06 07:37:04;;;;;;;30.55;15.82;;;;;;;;;;5075328;28;20391;-85
2022/02/06 07:39:30;;;;;;;31.73;18.30;;;;;;;;;;5075736;28;20024;-87
2022/02/06 07:41:57;;;;;;;43.63;22.63;;;;;;;;;;5074473;28;20111;-86
2022/02/06 07:44:23;;;;;;;177.10;165.20;;;;;;;;;;5075286;28;20025;-87
2022/02/06 07:46:52;;;;;;;43.75;24.27;;;;;;;;;;5074498;28;20033;-84
2022/02/06 07:49:19;;;;;;;39.75;23.45;;;;;;;;;;5075781;28;20017;-86
2022/02/06 07:51:45;;;;;;;37.65;20.88;;;;;;;;;;5075072;28;20473;-84
2022/02/06 07:54:11;;;;;;;76.00;69.53;;;;;;;;;;5074004;28;20029;-85
2022/02/06 07:56:38;;;;;;;93.38;86.13;;;;;;;;;;5075234;28;20028;-86
2022/02/06 07:59:04;;;;;;;47.70;27.35;;;;;;;;;;5074830;28;20024;-84
2022/02/06 08:01:30;;;;;;;44.08;26.20;;;;;;;;;;5075247;28;20468;-85
2022/02/06 08:03:56;;;;;;;53.15;37.47;;;;;;;;;;5073860;28;20028;-87
2022/02/06 08:06:22;;;;;;;60.42;35.92;;;;;;;;;;5074838;28;20021;-85
2022/02/06 08:08:49;;;;;;;55.72;36.50;;;;;;;;;;5074813;28;20056;-84
2022/02/06 08:11:16;;;;;;;38.28;26.90;;;;;;;;;;5073866;28;20021;-84
2022/02/06 08:16:09;;;;;;;51.25;30.30;;;;;;;;;;5074146;28;20044;-83
2022/02/06 08:18:39;;;;;;;41.90;25.00;;;;;;;;;;5073338;28;20020;-85
2022/02/06 08:21:06;;;;;;;42.65;24.77;;;;;;;;;;5073556;28;20384;-85
2022/02/06 08:23:32;;;;;;;34.47;22.55;;;;;;;;;;5074766;28;20016;-85
2022/02/06 08:25:59;;;;;;;35.42;21.13;;;;;;;;;;5074672;28;20021;-85
2022/02/06 08:28:25;;;;;;;34.72;20.88;;;;;;;;;;5073597;28;20107;-86
2022/02/06 08:30:52;;;;;;;46.50;28.40;;;;;;;;;;5074720;28;20488;-85
2022/02/06 08:33:18;;;;;;;37.45;22.17;;;;;;;;;;5074189;28;20029;-86
2022/02/06 08:35:49;;;;;;;38.42;22.00;;;;;;;;;;5074319;28;20099;-85
2022/02/06 08:38:15;;;;;;;38.63;23.58;;;;;;;;;;5074191;28;20024;-85
2022/02/06 08:40:42;;;;;;;48.65;28.35;;;;;;;;;;5074064;28;20028;-85
2022/02/06 08:43:09;;;;;;;41.65;24.05;;;;;;;;;;5074224;28;20021;-84
2022/02/06 08:45:36;;;;;;;33.13;21.40;;;;;;;;;;5074179;28;20457;-84
2022/02/06 08:48:02;;;;;;;30.45;20.20;;;;;;;;;;5072480;28;20439;-85
2022/02/06 08:50:28;;;;;;;28.75;18.20;;;;;;;;;;5074376;28;20044;-84
2022/02/06 08:52:59;;;;;;;41.28;22.83;;;;;;;;;;5074009;28;20024;-84
2022/02/06 08:55:25;;;;;;;32.00;19.60;;;;;;;;;;5074041;28;20028;-85
2022/02/06 08:57:52;;;;;;;29.95;16.52;;;;;;;;;;5072903;28;20086;-84
2022/02/06 09:00:19;;;;;;;28.83;18.85;;;;;;;;;;5072995;28;20388;-85
2022/02/06 09:02:46;;;;;;;28.02;15.40;;;;;;;;;;5072605;28;20048;-86
2022/02/06 09:05:13;;;;;;;28.42;15.27;;;;;;;;;;5074287;28;20025;-85
2022/02/06 09:07:40;;;;;;;34.92;18.75;;;;;;;;;;5074565;28;20020;-85
2022/02/06 09:10:07;;;;;;;27.17;17.40;;;;;;;;;;5073003;28;20032;-84
2022/02/06 09:12:36;;;;;;;30.35;19.95;;;;;;;;;;5074283;28;20013;-84
2022/02/06 09:15:02;;;;;;;47.47;28.00;;;;;;;;;;5073655;28;20047;-85
2022/02/06 09:17:28;;;;;;;37.90;19.83;;;;;;;;;;5072146;28;20024;-85
2022/02/06 09:19:54;;;;;;;26.60;17.75;;;;;;;;;;5073802;28;20025;-85
2022/02/06 09:22:21;;;;;;;27.73;16.55;;;;;;;;;;5073718;28;20025;-86
2022/02/06 09:24:47;;;;;;;37.60;23.90;;;;;;;;;;5074066;28;20387;-86
2022/02/06 09:27:13;;;;;;;32.60;18.02;;;;;;;;;;5074078;28;20384;-86
2022/02/06 09:29:41;;;;;;;29.83;17.33;;;;;;;;;;5072720;28;20111;-86
2022/02/06 09:37:00;;;;;;;25.17;16.45;;;;;;;;;;5077652;28;20116;-85
2022/02/06 09:39:27;;;;;;;22.98;12.85;;;;;;;;;;5078888;28;20024;-86
2022/02/06 09:41:54;;;;;;;19.00;11.02;;;;;;;;;;5077446;28;20496;-84
2022/02/06 09:44:20;;;;;;;18.05;11.00;;;;;;;;;;5078408;28;20017;-85
2022/02/06 09:46:47;;;;;;;21.88;11.27;;;;;;;;;;5077120;28;20111;-85
2022/02/06 09:49:14;;;;;;;32.42;20.45;;;;;;;;;;5078560;28;20518;-85
2022/02/06 09:51:43;;;;;;;25.00;14.85;;;;;;;;;;5075785;28;20028;-85
2022/02/06 09:54:11;;;;;;;23.85;16.17;;;;;;;;;;5077125;28;20047;-84
2022/02/06 10:00:26;;;;;;;17.48;9.95;;;;;;;;;;5112183;28;20498;-84
2022/02/06 10:02:55;;;;;;;18.02;10.57;;;;;;;;;;5111545;28;20023;-86
2022/02/06 10:05:21;;;;;;;26.92;15.98;;;;;;;;;;5111566;28;20050;-84
2022/02/06 10:07:51;;;;;;;25.73;15.98;;;;;;;;;;5110388;28;20452;-83
2022/02/06 10:15:11;;;;;;;25.75;13.40;;;;;;;;;;5112033;27;20403;-83
2022/02/06 10:20:20;;;;;;;24.50;11.48;;;;;;;;;;5111286;27;20884;-84
2022/02/06 10:24:44;;;;;;;17.92;10.05;;;;;;;;;;5071435;28;20391;-86
2022/02/06 10:29:41;;;;;;;12.40;7.90;;;;;;;;;;5071013;28;20032;-84
2022/02/06 10:32:11;;;;;;;20.08;10.18;;;;;;;;;;5071156;28;20021;-84
2022/02/06 10:36:49;;;;;;;19.80;12.13;;;;;;;;;;5071214;28;20838;-83
2022/02/06 10:39:17;;;;;;;18.17;12.57;;;;;;;;;;5069765;28;20388;-82
2022/02/06 10:41:49;;;;;;;15.90;10.40;;;;;;;;;;5069415;28;20523;-84
2022/02/06 10:44:16;;;;;;;20.75;11.20;;;;;;;;;;5070753;28;20075;-84
2022/02/06 10:46:47;;;;;;;18.63;11.88;;;;;;;;;;5069865;28;20027;-84
2022/02/06 10:49:14;;;;;;;18.25;10.63;;;;;;;;;;5069365;28;20021;-84
2022/02/06 10:51:51;;;;;;;19.23;11.02;;;;;;;;;;5070863;28;20025;-84
2022/02/06 10:55:36;;;;;;;24.05;16.58;;;;;;;;;;5071047;28;20406;-84
2022/02/06 11:01:21;;;;;;;30.55;16.95;;;;;;;;;;5112025;27;20381;-85
2022/02/06 11:03:51;;;;;;;22.13;13.70;;;;;;;;;;5115808;28;20039;-85
2022/02/06 11:06:42;;;;;;;40.00;22.92;;;;;;;;;;5118321;28;20073;-85
2022/02/06 11:09:26;;;;;;;33.25;18.77;;;;;;;;;;5116357;28;20028;-87
2022/02/06 11:14:46;;;;;;;19.08;12.55;;;;;;;;;;5072140;28;20384;-84
2022/02/06 11:18:05;;;;;;;15.48;9.32;;;;;;;;;;5071675;28;20991;-85
2022/02/06 11:25:19;;;;;;;18.02;11.35;;;;;;;;;;5112102;27;20434;-86
2022/02/06 11:27:46;;;;;;;20.27;11.95;;;;;;;;;;5112035;28;20038;-86
2022/02/06 11:33:06;;;;;;;17.45;9.80;;;;;;;;;;5092456;27;20385;-86
2022/02/06 11:45:45;;;;;;;22.70;14.77;;;;;;;;;;5091541;28;19993;-87
2022/02/06 11:48:14;;;;;;;14.88;9.52;;;;;;;;;;5073451;28;20021;-87
2022/02/06 11:52:10;;;;;;;19.48;11.27;;;;;;;;;;5071603;28;20806;-86
2022/02/06 11:54:44;;;;;;;29.38;18.23;;;;;;;;;;5071728;28;20051;-85
2022/02/06 11:59:27;;;;;;;16.63;10.43;;;;;;;;;;5071250;28;20387;-86
2022/02/06 12:01:53;;;;;;;20.67;11.60;;;;;;;;;;5070494;28;20029;-86
2022/02/06 12:04:21;;;;;;;16.52;9.63;;;;;;;;;;5070088;28;20074;-86
2022/02/06 12:09:01;;;;;;;17.73;11.15;;;;;;;;;;5071957;28;20376;-86
2022/02/06 12:11:28;;;;;;;15.48;10.73;;;;;;;;;;5071303;28;20036;-85
2022/02/06 12:14:19;;;;;;;25.05;14.77;;;;;;;;;;5070918;28;20484;-86
2022/02/06 12:17:45;;;;;;;25.50;15.95;;;;;;;;;;5072429;28;20898;-86
2022/02/06 12:20:12;;;;;;;11.75;8.05;;;;;;;;;;5072009;28;20065;-87
2022/02/06 12:23:57;;;;;;;15.35;7.57;;;;;;;;;;5073228;28;20458;-86
2022/02/06 12:27:20;;;;;;;14.50;9.52;;;;;;;;;;5072723;27;20449;-88
2022/02/06 12:31:28;;;;;;;15.55;9.57;;;;;;;;;;5094912;27;1718855;-87
2022/02/06 12:34:09;;;;;;;16.13;9.43;;;;;;;;;;5131234;28;20502;-85
2022/02/06 12:40:33;;;;;;;19.65;10.55;;;;;;;;;;5071455;28;20395;-85
2022/02/06 12:43:02;;;;;;;10.63;6.50;;;;;;;;;;5071286;28;20029;-85
2022/02/06 12:45:29;;;;;;;12.20;6.63;;;;;;;;;;5070262;28;20489;-86
2022/02/06 12:48:09;;;;;;;9.23;5.45;;;;;;;;;;5071052;28;20020;-86
2022/02/06 12:50:42;;;;;;;8.90;4.95;;;;;;;;;;5071571;28;20410;-86
2022/02/06 12:53:17;;;;;;;12.82;8.05;;;;;;;;;;5071326;28;20025;-86
2022/02/06 12:55:44;;;;;;;12.30;7.28;;;;;;;;;;5070172;28;20507;-85
2022/02/06 12:59:01;;;;;;;19.65;11.93;;;;;;;;;;5078543;28;20421;-84
2022/02/06 13:02:52;;;;;;;11.50;6.28;;;;;;;;;;5111749;27;20465;-85
2022/02/06 13:05:19;;;;;;;10.60;5.97;;;;;;;;;;5112343;28;20031;-85
2022/02/06 13:08:58;;;;;;;8.20;4.75;;;;;;;;;;5091454;27;20394;-85
2022/02/06 13:11:34;;;;;;;12.63;7.55;;;;;;;;;;5090230;28;20033;-86
2022/02/06 13:14:11;;;;;;;9.07;5.10;;;;;;;;;;5091710;28;20050;-84
2022/02/06 13:17:07;;;;;;;16.83;7.40;;;;;;;;;;5090876;28;20261;-85
2022/02/06 13:20:37;;;;;;;9.75;5.20;;;;;;;;;;5072124;28;20426;-86
2022/02/06 13:31:36;;;;;;;12.20;5.30;;;;;;;;;;5031690;28;20032;-85
2022/02/06 13:37:59;;;;;;;7.82;4.72;;;;;;;;;;5070827;28;20083;-86
2022/02/06 13:40:31;;;;;;;18.58;11.20;;;;;;;;;;5071599;28;20025;-86
2022/02/06 13:42:59;;;;;;;18.90;10.38;;;;;;;;;;5069746;28;20021;-86
2022/02/06 13:45:27;;;;;;;18.17;8.73;;;;;;;;;;5071942;28;20051;-86
2022/02/06 13:47:55;;;;;;;10.80;5.50;;;;;;;;;;5071067;28;20101;-87
2022/02/06 13:50:21;;;;;;;34.45;19.23;;;;;;;;;;5069433;28;20384;-85
2022/02/06 13:52:47;;;;;;;30.98;17.55;;;;;;;;;;5070937;28;20021;-85
2022/02/06 13:55:16;;;;;;;20.85;10.68;;;;;;;;;;5070873;28;20408;-85
2022/02/06 13:57:44;;;;;;;34.55;21.40;;;;;;;;;;5069376;28;20028;-84
2022/02/06 14:01:42;;;;;;;11.50;6.63;;;;;;;;;;5076588;28;20384;-86
2022/02/06 14:06:18;;;;;;;12.90;5.80;;;;;;;;;;5130029;27;20420;-87
2022/02/06 14:08:56;;;;;;;20.90;13.90;;;;;;;;;;5113836;28;20078;-85
2022/02/06 14:11:29;;;;;;;11.75;6.15;;;;;;;;;;5112065;28;20384;-86
2022/02/06 14:14:56;;;;;;;9.93;4.93;;;;;;;;;;5132963;27;20410;-84
2022/02/06 14:19:04;;;;;;;18.38;10.45;;;;;;;;;;5091813;27;20407;-85
2022/02/06 14:21:43;;;;;;;13.65;9.05;;;;;;;;;;5091574;28;20035;-85
2022/02/06 14:25:03;;;;;;;20.30;13.93;;;;;;;;;;5079891;27;2170584;-86
2022/02/06 14:27:30;;;;;;;21.73;14.70;;;;;;;;;;5131356;28;20118;-86
2022/02/06 14:29:59;;;;;;;15.85;9.77;;;;;;;;;;5132648;27;20043;-85
2022/02/06 14:32:26;;;;;;;11.80;7.03;;;;;;;;;;5132071;28;20019;-86
2022/02/06 14:34:58;;;;;;;20.45;12.07;;;;;;;;;;5132191;28;20023;-84
2022/02/06 14:37:27;;;;;;;14.95;8.52;;;;;;;;;;5130897;28;20026;-85
2022/02/06 14:40:12;;;;;;;11.05;7.03;;;;;;;;;;5131760;27;20352;-84
2022/02/06 14:42:49;;;;;;;14.05;8.57;;;;;;;;;;5132236;28;20064;-85
2022/02/06 14:45:15;;;;;;;47.60;27.85;;;;;;;;;;5132079;27;20052;-84
2022/02/06 14:50:37;;;;;;;26.38;15.25;;;;;;;;;;5071825;28;20388;-85
2022/02/06 14:53:03;;;;;;;30.85;16.30;;;;;;;;;;5071207;28;20086;-85
2022/02/06 14:55:30;;;;;;;35.20;20.45;;;;;;;;;;5069566;28;20415;-85
2022/02/06 14:57:56;;;;;;;35.00;22.02;;;;;;;;;;5071214;28;20105;-85
2022/02/06 15:00:23;;;;;;;27.75;16.25;;;;;;;;;;5070778;28;20052;-86
2022/02/06 15:02:49;;;;;;;21.55;12.48;;;;;;;;;;5071180;28;20466;-86
2022/02/06 15:05:15;;;;;;;18.40;11.32;;;;;;;;;;5071424;28;20153;-85
2022/02/06 15:07:42;;;;;;;29.15;15.98;;;;;;;;;;5069712;28;20094;-85
2022/02/06 15:10:08;;;;;;;20.90;13.60;;;;;;;;;;5071124;28;20033;-85
2022/02/06 15:12:35;;;;;;;20.90;15.48;;;;;;;;;;5071875;28;20024;-86
2022/02/06 15:15:02;;;;;;;19.77;11.38;;;;;;;;;;5071231;28;20099;-86
2022/02/06 15:19:31;;;;;;;21.83;14.55;;;;;;;;;;5071671;28;20380;-85
2022/02/06 15:21:58;;;;;;;17.27;12.68;;;;;;;;;;5069805;28;20465;-85
2022/02/06 15:27:31;;;;;;;28.85;21.08;;;;;;;;;;5072109;28;20396;-86
2022/02/06 15:31:41;;;;;;;31.73;25.10;;;;;;;;;;5112150;27;20454;-85
2022/02/06 15:37:18;;;;;;;66.57;41.35;;;;;;;;;;5111712;27;20396;-87
2022/02/06 15:39:46;;;;;;;102.32;69.70;;;;;;;;;;5112015;28;20031;-86
2022/02/06 15:42:46;;;;;;;122.60;64.88;;;;;;;;;;5071761;28;20383;-85
2022/02/06 15:45:12;;;;;;;90.72;54.88;;;;;;;;;;5071691;28;20488;-87
2022/02/06 15:47:39;;;;;;;84.43;50.30;;;;;;;;;;5071678;28;20055;-86
2022/02/06 15:51:53;;;;;;;66.18;43.55;;;;;;;;;;5112163;27;20442;-87
2022/02/06 15:54:19;;;;;;;58.88;37.13;;;;;;;;;;5113786;28;20047;-83
2022/02/06 15:56:47;;;;;;;105.40;71.60;;;;;;;;;;5111827;28;20024;-85
2022/02/06 15:59:14;;;;;;;94.70;62.95;;;;;;;;;;5112047;28;20418;-86
2022/02/06 16:01:40;;;;;;;201.43;107.72;;;;;;;;;;5111973;28;20016;-85
2022/02/06 16:04:07;;;;;;;145.27;92.55;;;;;;;;;;5111552;28;20475;-87
2022/02/06 16:06:33;;;;;;;158.77;98.90;;;;;;;;;;5112013;28;20024;-87
2022/02/06 16:10:20;;;;;;;198.02;120.38;;;;;;;;;;5071909;27;20426;-86
2022/02/06 16:12:46;;;;;;;185.98;110.88;;;;;;;;;;5070171;28;20107;-86
2022/02/06 16:16:29;;;;;;;166.15;95.18;;;;;;;;;;5071931;28;20760;-85
2022/02/06 16:18:59;;;;;;;157.50;94.68;;;;;;;;;;5071372;28;20024;-87
2022/02/06 16:21:26;;;;;;;152.45;95.70;;;;;;;;;;5077155;28;20021;-85
2022/02/06 16:23:52;;;;;;;163.07;97.07;;;;;;;;;;5078365;28;20020;-86
2022/02/06 16:26:19;;;;;;;201.00;109.57;;;;;;;;;;5079231;28;20027;-86
2022/02/06 16:28:51;;;;;;;159.82;86.63;;;;;;;;;;5072252;28;20054;-86
2022/02/06 16:31:18;;;;;;;169.38;91.57;;;;;;;;;;5071657;28;20029;-86
2022/02/06 16:33:44;;;;;;;131.95;81.78;;;;;;;;;;5071135;28;20098;-86
2022/02/06 16:36:10;;;;;;;137.65;83.72;;;;;;;;;;5071531;28;20040;-85
2022/02/06 16:38:36;;;;;;;134.45;79.43;;;;;;;;;;5071262;28;20369;-86
2022/02/06 16:41:04;;;;;;;123.10;79.78;;;;;;;;;;5071427;28;20021;-86
2022/02/06 16:43:30;;;;;;;120.10;72.22;;;;;;;;;;5071734;28;20021;-86
2022/02/06 16:45:57;;;;;;;130.98;76.88;;;;;;;;;;5070875;28;20032;-86
2022/02/06 16:48:23;;;;;;;111.50;67.75;;;;;;;;;;5069948;28;20036;-84
2022/02/06 16:50:50;;;;;;;109.88;67.10;;;;;;;;;;5070060;28;20112;-85
2022/02/06 16:53:16;;;;;;;109.43;64.60;;;;;;;;;;5069506;28;20027;-85
2022/02/06 16:55:42;;;;;;;116.97;70.18;;;;;;;;;;5071343;28;20423;-85
2022/02/06 16:58:08;;;;;;;162.02;90.05;;;;;;;;;;5069942;28;20124;-85
2022/02/06 17:00:35;;;;;;;181.30;101.90;;;;;;;;;;5069374;28;20054;-85
2022/02/06 17:03:01;;;;;;;207.15;114.82;;;;;;;;;;5070767;28;20092;-86
2022/02/06 17:05:27;;;;;;;155.77;87.38;;;;;;;;;;5069812;28;20435;-86
2022/02/06 17:07:55;;;;;;;226.32;134.00;;;;;;;;;;5068909;28;20023;-85
2022/02/06 17:10:22;;;;;;;269.05;160.40;;;;;;;;;;5069115;28;20029;-85
2022/02/06 17:12:48;;;;;;;241.55;145.00;;;;;;;;;;5069171;28;20033;-85
2022/02/06 17:15:15;;;;;;;241.93;138.98;;;;;;;;;;5069743;28;20574;-85
2022/02/06 17:17:41;;;;;;;201.20;120.47;;;;;;;;;;5069209;28;20035;-85
2022/02/06 17:20:07;;;;;;;161.13;97.65;;;;;;;;;;5070255;28;20021;-86
2022/02/06 17:22:34;;;;;;;130.00;76.38;;;;;;;;;;5068671;28;20459;-85
2022/02/06 17:25:00;;;;;;;226.82;147.40;;;;;;;;;;5069029;28;20078;-85
2022/02/06 17:27:28;;;;;;;164.98;112.60;;;;;;;;;;5059118;28;20021;-86
2022/02/06 17:29:54;;;;;;;169.95;111.50;;;;;;;;;;5056535;28;20025;-85
2022/02/06 17:32:21;;;;;;;130.07;89.47;;;;;;;;;;5056766;28;20029;-85
2022/02/06 17:34:47;;;;;;;106.45;70.57;;;;;;;;;;5055530;28;20053;-85
2022/02/06 17:37:13;;;;;;;87.95;59.60;;;;;;;;;;5055089;28;20421;-85
2022/02/06 17:39:39;;;;;;;100.97;63.35;;;;;;;;;;5055479;28;20021;-86
2022/02/06 17:42:06;;;;;;;107.07;68.20;;;;;;;;;;5055089;28;20025;-85
2022/02/06 17:44:32;;;;;;;134.50;85.68;;;;;;;;;;5056657;28;20074;-85
2022/02/06 17:46:58;;;;;;;132.52;83.38;;;;;;;;;;5055321;28;20075;-86
2022/02/06 17:49:25;;;;;;;136.65;82.47;;;;;;;;;;5054995;28;20021;-85
2022/02/06 17:51:51;;;;;;;160.23;98.75;;;;;;;;;;5055122;28;20044;-85
2022/02/06 17:54:17;;;;;;;157.52;94.43;;;;;;;;;;5054815;28;20033;-85
2022/02/06 17:56:43;;;;;;;160.88;95.00;;;;;;;;;;5055764;28;20029;-85